Cedar Falls, North Carolina
Current Conditions -  °F | °C
As of 8:35 AM on Friday 19 Dec 2014 (Local Time) from KHBI Reporting Station
Clear Clear  
Wind Chill: 36°   Ceiling: Unl
Heat Index: 36°   Visibility: 10mi
Dew Point: 29°   Wind: 0mph
Humidity: 75%   Direction: NA
Pressure: 30.19"   Gusts: NA
Location:  35.75°N, 79.73°W
Report Text: KHBI 191335Z AUTO 00000KT 10SM CLR 02/M02 A3019 RMK AO2 T00231017
Loading
Personal Weather Stations






























Interactive Weather Map New forecast layout! Learn more

10-Day Weather Forecast

Advertisements
Track Severe Weather on mobile